sensor_id;sensor_type;location;lat;lon;timestamp;temperature;humidity
22065;DHT22;11197;53.110;8.468;2022-12-20T00:00:50;8.10;99.90
22065;DHT22;11197;53.110;8.468;2022-12-20T00:03:16;8.10;99.90
22065;DHT22;11197;53.110;8.468;2022-12-20T00:05:42;8.10;99.90
22065;DHT22;11197;53.110;8.468;2022-12-20T00:08:09;8.10;99.90
22065;DHT22;11197;53.110;8.468;2022-12-20T00:10:36;8.10;99.90
22065;DHT22;11197;53.110;8.468;2022-12-20T00:13:02;8.20;99.90
22065;DHT22;11197;53.110;8.468;2022-12-20T00:15:28;8.20;99.90
22065;DHT22;11197;53.110;8.468;2022-12-20T00:17:54;8.20;99.90
22065;DHT22;11197;53.110;8.468;2022-12-20T00:20:20;8.30;99.90
22065;DHT22;11197;53.110;8.468;2022-12-20T00:22:46;8.30;99.90
22065;DHT22;11197;53.110;8.468;2022-12-20T00:25:11;8.30;99.90
22065;DHT22;11197;53.110;8.468;2022-12-20T00:27:37;8.30;99.90
22065;DHT22;11197;53.110;8.468;2022-12-20T00:30:04;8.30;99.90
22065;DHT22;11197;53.110;8.468;2022-12-20T00:32:31;8.30;99.90
22065;DHT22;11197;53.110;8.468;2022-12-20T00:34:57;8.30;99.90
22065;DHT22;11197;53.110;8.468;2022-12-20T00:37:23;8.30;99.90
22065;DHT22;11197;53.110;8.468;2022-12-20T00:39:50;8.40;99.90
22065;DHT22;11197;53.110;8.468;2022-12-20T00:42:16;8.40;99.90
22065;DHT22;11197;53.110;8.468;2022-12-20T00:44:44;8.40;99.90
22065;DHT22;11197;53.110;8.468;2022-12-20T00:47:09;8.40;99.90
22065;DHT22;11197;53.110;8.468;2022-12-20T00:49:35;8.40;99.90
22065;DHT22;11197;53.110;8.468;2022-12-20T00:52:01;8.40;99.90
22065;DHT22;11197;53.110;8.468;2022-12-20T00:54:27;8.40;99.90
22065;DHT22;11197;53.110;8.468;2022-12-20T00:56:53;8.40;99.90
22065;DHT22;11197;53.110;8.468;2022-12-20T00:59:19;8.40;99.90
22065;DHT22;11197;53.110;8.468;2022-12-20T01:01:46;8.40;99.90
22065;DHT22;11197;53.110;8.468;2022-12-20T01:04:12;8.50;99.90
22065;DHT22;11197;53.110;8.468;2022-12-20T01:06:41;8.50;99.90
22065;DHT22;11197;53.110;8.468;2022-12-20T01:09:07;8.50;99.90
22065;DHT22;11197;53.110;8.468;2022-12-20T01:11:35;8.50;99.90
22065;DHT22;11197;53.110;8.468;2022-12-20T01:14:14;8.50;99.90
22065;DHT22;11197;53.110;8.468;2022-12-20T01:16:42;8.60;99.90
22065;DHT22;11197;53.110;8.468;2022-12-20T01:19:11;8.60;99.90
22065;DHT22;11197;53.110;8.468;2022-12-20T01:21:39;8.60;99.90
22065;DHT22;11197;53.110;8.468;2022-12-20T01:24:17;8.60;99.90
22065;DHT22;11197;53.110;8.468;2022-12-20T01:26:45;8.70;99.90
22065;DHT22;11197;53.110;8.468;2022-12-20T01:29:12;8.70;99.90
22065;DHT22;11197;53.110;8.468;2022-12-20T01:31:38;8.70;99.90
22065;DHT22;11197;53.110;8.468;2022-12-20T01:34:05;8.70;99.90
22065;DHT22;11197;53.110;8.468;2022-12-20T01:36:33;8.70;99.90
22065;DHT22;11197;53.110;8.468;2022-12-20T01:39:05;8.70;99.90
22065;DHT22;11197;53.110;8.468;2022-12-20T01:41:34;8.70;99.90
22065;DHT22;11197;53.110;8.468;2022-12-20T01:44:03;8.70;99.90
22065;DHT22;11197;53.110;8.468;2022-12-20T01:46:32;8.70;99.90
22065;DHT22;11197;53.110;8.468;2022-12-20T01:49:18;8.80;99.90
22065;DHT22;11197;53.110;8.468;2022-12-20T01:51:52;8.70;99.90
22065;DHT22;11197;53.110;8.468;2022-12-20T01:54:22;8.70;99.90
22065;DHT22;11197;53.110;8.468;2022-12-20T01:57:01;8.70;99.90
22065;DHT22;11197;53.110;8.468;2022-12-20T01:59:27;8.70;99.90
22065;DHT22;11197;53.110;8.468;2022-12-20T02:01:57;8.80;99.90
22065;DHT22;11197;53.110;8.468;2022-12-20T02:04:23;8.80;99.90
22065;DHT22;11197;53.110;8.468;2022-12-20T02:06:49;8.90;99.90
22065;DHT22;11197;53.110;8.468;2022-12-20T02:09:15;8.80;99.90
22065;DHT22;11197;53.110;8.468;2022-12-20T02:26:02;8.80;99.90
22065;DHT22;11197;53.110;8.468;2022-12-20T02:31:11;8.80;99.90
22065;DHT22;11197;53.110;8.468;2022-12-20T02:33:42;8.80;99.90
22065;DHT22;11197;53.110;8.468;2022-12-20T02:36:09;8.90;99.90
22065;DHT22;11197;53.110;8.468;2022-12-20T02:38:36;8.80;99.90
22065;DHT22;11197;53.110;8.468;2022-12-20T02:43:37;8.90;99.90
22065;DHT22;11197;53.110;8.468;2022-12-20T02:46:23;8.90;99.90
22065;DHT22;11197;53.110;8.468;2022-12-20T02:48:52;8.90;99.90
22065;DHT22;11197;53.110;8.468;2022-12-20T02:51:21;8.90;99.90
22065;DHT22;11197;53.110;8.468;2022-12-20T02:53:48;8.90;99.90
22065;DHT22;11197;53.110;8.468;2022-12-20T02:56:37;8.90;99.90
22065;DHT22;11197;53.110;8.468;2022-12-20T02:59:29;8.80;99.90
22065;DHT22;11197;53.110;8.468;2022-12-20T03:01:58;8.90;99.90
22065;DHT22;11197;53.110;8.468;2022-12-20T03:04:28;8.80;99.90
22065;DHT22;11197;53.110;8.468;2022-12-20T03:07:15;8.90;99.90
22065;DHT22;11197;53.110;8.468;2022-12-20T03:09:43;8.90;99.90
22065;DHT22;11197;53.110;8.468;2022-12-20T03:12:14;8.90;99.90
22065;DHT22;11197;53.110;8.468;2022-12-20T03:14:41;8.90;99.90
22065;DHT22;11197;53.110;8.468;2022-12-20T03:17:09;8.90;99.90
22065;DHT22;11197;53.110;8.468;2022-12-20T03:19:37;8.90;99.90
22065;DHT22;11197;53.110;8.468;2022-12-20T03:22:04;8.90;99.90
22065;DHT22;11197;53.110;8.468;2022-12-20T03:24:30;8.90;99.90
22065;DHT22;11197;53.110;8.468;2022-12-20T03:26:58;8.90;99.90
22065;DHT22;11197;53.110;8.468;2022-12-20T03:29:24;8.90;99.90
22065;DHT22;11197;53.110;8.468;2022-12-20T03:31:50;8.90;99.90
22065;DHT22;11197;53.110;8.468;2022-12-20T03:34:16;8.90;99.90
22065;DHT22;11197;53.110;8.468;2022-12-20T03:36:42;8.90;99.90
22065;DHT22;11197;53.110;8.468;2022-12-20T03:39:08;8.90;99.90
22065;DHT22;11197;53.110;8.468;2022-12-20T03:41:37;9.00;99.90
22065;DHT22;11197;53.110;8.468;2022-12-20T03:44:06;9.00;99.90
22065;DHT22;11197;53.110;8.468;2022-12-20T03:46:31;9.00;99.90
22065;DHT22;11197;53.110;8.468;2022-12-20T03:48:57;9.00;99.90
22065;DHT22;11197;53.110;8.468;2022-12-20T03:51:23;9.10;99.90
22065;DHT22;11197;53.110;8.468;2022-12-20T03:53:50;9.10;99.90
22065;DHT22;11197;53.110;8.468;2022-12-20T03:56:18;9.10;99.90
22065;DHT22;11197;53.110;8.468;2022-12-20T03:58:44;9.10;99.90
22065;DHT22;11197;53.110;8.468;2022-12-20T04:01:20;9.10;99.90
22065;DHT22;11197;53.110;8.468;2022-12-20T04:03:46;9.10;99.90
22065;DHT22;11197;53.110;8.468;2022-12-20T04:06:13;9.10;99.90
22065;DHT22;11197;53.110;8.468;2022-12-20T04:08:38;9.10;99.90
22065;DHT22;11197;53.110;8.468;2022-12-20T04:11:05;9.10;99.90
22065;DHT22;11197;53.110;8.468;2022-12-20T04:13:50;9.10;99.90
22065;DHT22;11197;53.110;8.468;2022-12-20T04:16:22;9.10;99.90
22065;DHT22;11197;53.110;8.468;2022-12-20T04:18:49;9.00;99.90
22065;DHT22;11197;53.110;8.468;2022-12-20T04:21:24;9.00;99.90
22065;DHT22;11197;53.110;8.468;2022-12-20T04:23:53;9.10;99.90
22065;DHT22;11197;53.110;8.468;2022-12-20T04:26:19;9.10;99.90
22065;DHT22;11197;53.110;8.468;2022-12-20T04:28:46;9.10;99.90
22065;DHT22;11197;53.110;8.468;2022-12-20T04:31:12;9.10;99.90
22065;DHT22;11197;53.110;8.468;2022-12-20T04:33:38;9.10;99.90
22065;DHT22;11197;53.110;8.468;2022-12-20T04:36:05;9.10;99.90
22065;DHT22;11197;53.110;8.468;2022-12-20T04:38:34;9.10;99.90
22065;DHT22;11197;53.110;8.468;2022-12-20T04:41:00;9.10;99.90
22065;DHT22;11197;53.110;8.468;2022-12-20T04:43:34;9.10;99.90
22065;DHT22;11197;53.110;8.468;2022-12-20T04:46:02;9.10;99.90
22065;DHT22;11197;53.110;8.468;2022-12-20T04:48:28;9.10;99.90
22065;DHT22;11197;53.110;8.468;2022-12-20T04:50:55;9.00;99.90
22065;DHT22;11197;53.110;8.468;2022-12-20T04:53:23;9.10;99.90
22065;DHT22;11197;53.110;8.468;2022-12-20T04:56:08;9.10;99.90
22065;DHT22;11197;53.110;8.468;2022-12-20T04:58:35;9.10;99.90
22065;DHT22;11197;53.110;8.468;2022-12-20T05:01:03;9.10;99.90
22065;DHT22;11197;53.110;8.468;2022-12-20T05:03:39;9.10;99.90
22065;DHT22;11197;53.110;8.468;2022-12-20T05:06:05;9.10;99.90
22065;DHT22;11197;53.110;8.468;2022-12-20T05:08:32;9.10;99.90
22065;DHT22;11197;53.110;8.468;2022-12-20T05:10:58;9.10;99.90
22065;DHT22;11197;53.110;8.468;2022-12-20T05:13:24;9.10;99.90
22065;DHT22;11197;53.110;8.468;2022-12-20T05:15:51;9.10;99.90
22065;DHT22;11197;53.110;8.468;2022-12-20T05:18:22;9.10;99.90
22065;DHT22;11197;53.110;8.468;2022-12-20T05:21:01;9.20;99.90
22065;DHT22;11197;53.110;8.468;2022-12-20T05:23:49;9.20;99.90
22065;DHT22;11197;53.110;8.468;2022-12-20T05:26:47;9.20;99.90
22065;DHT22;11197;53.110;8.468;2022-12-20T05:29:14;9.20;99.90
22065;DHT22;11197;53.110;8.468;2022-12-20T05:31:41;9.20;99.90
22065;DHT22;11197;53.110;8.468;2022-12-20T05:34:08;9.20;99.90
22065;DHT22;11197;53.110;8.468;2022-12-20T05:36:36;9.20;99.90
22065;DHT22;11197;53.110;8.468;2022-12-20T05:39:04;9.20;99.90
22065;DHT22;11197;53.110;8.468;2022-12-20T05:41:33;9.30;99.90
22065;DHT22;11197;53.110;8.468;2022-12-20T05:44:00;9.30;99.90
22065;DHT22;11197;53.110;8.468;2022-12-20T05:46:27;9.30;99.90
22065;DHT22;11197;53.110;8.468;2022-12-20T05:48:59;9.40;99.90
22065;DHT22;11197;53.110;8.468;2022-12-20T05:51:25;9.40;99.90
22065;DHT22;11197;53.110;8.468;2022-12-20T05:54:01;9.40;99.90
22065;DHT22;11197;53.110;8.468;2022-12-20T05:56:39;9.40;99.90
22065;DHT22;11197;53.110;8.468;2022-12-20T05:59:06;9.40;99.90
22065;DHT22;11197;53.110;8.468;2022-12-20T06:01:35;9.40;99.90
22065;DHT22;11197;53.110;8.468;2022-12-20T06:04:02;9.40;99.90
22065;DHT22;11197;53.110;8.468;2022-12-20T06:06:28;9.40;99.90
22065;DHT22;11197;53.110;8.468;2022-12-20T06:08:55;9.40;99.90
22065;DHT22;11197;53.110;8.468;2022-12-20T06:11:40;9.50;99.90
22065;DHT22;11197;53.110;8.468;2022-12-20T06:14:09;9.50;99.90
22065;DHT22;11197;53.110;8.468;2022-12-20T06:16:39;9.50;99.90
22065;DHT22;11197;53.110;8.468;2022-12-20T06:19:10;9.50;99.90
22065;DHT22;11197;53.110;8.468;2022-12-20T06:21:39;9.50;99.90
22065;DHT22;11197;53.110;8.468;2022-12-20T06:24:13;9.50;99.90
22065;DHT22;11197;53.110;8.468;2022-12-20T06:26:43;9.50;99.90
22065;DHT22;11197;53.110;8.468;2022-12-20T06:29:14;9.50;99.90
22065;DHT22;11197;53.110;8.468;2022-12-20T06:31:53;9.40;99.90
22065;DHT22;11197;53.110;8.468;2022-12-20T06:34:19;9.40;99.90
22065;DHT22;11197;53.110;8.468;2022-12-20T06:36:48;9.40;99.90
22065;DHT22;11197;53.110;8.468;2022-12-20T06:39:21;9.40;99.90
22065;DHT22;11197;53.110;8.468;2022-12-20T06:41:59;9.40;99.90
22065;DHT22;11197;53.110;8.468;2022-12-20T06:44:27;9.40;99.90
22065;DHT22;11197;53.110;8.468;2022-12-20T06:46:53;9.40;99.90
22065;DHT22;11197;53.110;8.468;2022-12-20T06:49:20;9.40;99.90
22065;DHT22;11197;53.110;8.468;2022-12-20T06:51:47;9.40;99.90
22065;DHT22;11197;53.110;8.468;2022-12-20T06:54:16;9.40;99.90
22065;DHT22;11197;53.110;8.468;2022-12-20T06:56:48;9.40;99.90
22065;DHT22;11197;53.110;8.468;2022-12-20T06:59:15;9.40;99.90
22065;DHT22;11197;53.110;8.468;2022-12-20T07:01:41;9.40;99.90
22065;DHT22;11197;53.110;8.468;2022-12-20T07:04:07;9.40;99.90
22065;DHT22;11197;53.110;8.468;2022-12-20T07:06:33;9.40;99.90
22065;DHT22;11197;53.110;8.468;2022-12-20T07:08:59;9.50;99.90
22065;DHT22;11197;53.110;8.468;2022-12-20T07:11:28;9.40;99.90
22065;DHT22;11197;53.110;8.468;2022-12-20T07:14:00;9.50;99.90
22065;DHT22;11197;53.110;8.468;2022-12-20T07:16:27;9.50;99.90
22065;DHT22;11197;53.110;8.468;2022-12-20T07:18:53;9.50;99.90
22065;DHT22;11197;53.110;8.468;2022-12-20T07:21:20;9.50;99.90
22065;DHT22;11197;53.110;8.468;2022-12-20T07:23:46;9.50;99.90
22065;DHT22;11197;53.110;8.468;2022-12-20T07:26:13;9.50;99.90
22065;DHT22;11197;53.110;8.468;2022-12-20T07:28:41;9.50;99.90
22065;DHT22;11197;53.110;8.468;2022-12-20T07:31:09;9.50;99.90
22065;DHT22;11197;53.110;8.468;2022-12-20T07:33:38;9.50;99.90
22065;DHT22;11197;53.110;8.468;2022-12-20T07:36:07;9.60;99.90
22065;DHT22;11197;53.110;8.468;2022-12-20T07:38:37;9.60;99.90
22065;DHT22;11197;53.110;8.468;2022-12-20T07:41:14;9.60;99.90
22065;DHT22;11197;53.110;8.468;2022-12-20T07:43:44;9.60;99.90
22065;DHT22;11197;53.110;8.468;2022-12-20T07:46:12;9.60;99.90
22065;DHT22;11197;53.110;8.468;2022-12-20T07:48:39;9.60;99.90
22065;DHT22;11197;53.110;8.468;2022-12-20T07:51:11;9.60;99.90
22065;DHT22;11197;53.110;8.468;2022-12-20T07:53:41;9.60;99.90
22065;DHT22;11197;53.110;8.468;2022-12-20T07:56:08;9.60;99.90
22065;DHT22;11197;53.110;8.468;2022-12-20T07:58:36;9.50;99.90
22065;DHT22;11197;53.110;8.468;2022-12-20T08:01:03;9.60;99.90
22065;DHT22;11197;53.110;8.468;2022-12-20T08:03:43;9.60;99.90
22065;DHT22;11197;53.110;8.468;2022-12-20T08:06:10;9.60;99.90
22065;DHT22;11197;53.110;8.468;2022-12-20T08:08:41;9.60;99.90
22065;DHT22;11197;53.110;8.468;2022-12-20T08:11:12;9.60;99.90
22065;DHT22;11197;53.110;8.468;2022-12-20T08:13:41;9.60;99.90
22065;DHT22;11197;53.110;8.468;2022-12-20T08:16:07;9.70;99.90
22065;DHT22;11197;53.110;8.468;2022-12-20T08:18:34;9.60;99.90
22065;DHT22;11197;53.110;8.468;2022-12-20T08:21:02;9.70;99.90
22065;DHT22;11197;53.110;8.468;2022-12-20T08:23:31;9.70;99.90
22065;DHT22;11197;53.110;8.468;2022-12-20T08:26:02;9.70;99.90
22065;DHT22;11197;53.110;8.468;2022-12-20T08:28:29;9.70;99.90
22065;DHT22;11197;53.110;8.468;2022-12-20T08:31:07;9.70;99.90
22065;DHT22;11197;53.110;8.468;2022-12-20T08:33:35;9.70;99.90
22065;DHT22;11197;53.110;8.468;2022-12-20T08:36:04;9.70;99.90
22065;DHT22;11197;53.110;8.468;2022-12-20T08:38:33;9.70;99.90
22065;DHT22;11197;53.110;8.468;2022-12-20T08:41:12;9.70;99.90
22065;DHT22;11197;53.110;8.468;2022-12-20T08:43:39;9.70;99.90
22065;DHT22;11197;53.110;8.468;2022-12-20T08:46:06;9.60;99.90
22065;DHT22;11197;53.110;8.468;2022-12-20T08:48:32;9.70;99.90
22065;DHT22;11197;53.110;8.468;2022-12-20T08:51:03;9.70;99.90
22065;DHT22;11197;53.110;8.468;2022-12-20T08:53:29;9.70;99.90
22065;DHT22;11197;53.110;8.468;2022-12-20T08:56:06;9.70;99.90
22065;DHT22;11197;53.110;8.468;2022-12-20T08:58:37;9.70;99.90
22065;DHT22;11197;53.110;8.468;2022-12-20T09:01:06;9.70;99.90
22065;DHT22;11197;53.110;8.468;2022-12-20T09:03:32;9.70;99.90
22065;DHT22;11197;53.110;8.468;2022-12-20T09:05:59;9.80;99.90
22065;DHT22;11197;53.110;8.468;2022-12-20T09:08:26;9.80;99.90
22065;DHT22;11197;53.110;8.468;2022-12-20T09:10:53;9.80;99.90
22065;DHT22;11197;53.110;8.468;2022-12-20T09:13:30;9.80;99.90
22065;DHT22;11197;53.110;8.468;2022-12-20T09:16:00;9.80;99.90
22065;DHT22;11197;53.110;8.468;2022-12-20T09:18:26;9.90;99.90
22065;DHT22;11197;53.110;8.468;2022-12-20T09:20:52;9.90;99.90
22065;DHT22;11197;53.110;8.468;2022-12-20T09:23:29;9.90;99.90
22065;DHT22;11197;53.110;8.468;2022-12-20T09:26:01;10.00;99.90
22065;DHT22;11197;53.110;8.468;2022-12-20T09:28:29;10.00;99.90
22065;DHT22;11197;53.110;8.468;2022-12-20T09:30:59;10.10;99.90
22065;DHT22;11197;53.110;8.468;2022-12-20T09:33:26;10.10;99.90
22065;DHT22;11197;53.110;8.468;2022-12-20T09:35:53;10.10;99.90
22065;DHT22;11197;53.110;8.468;2022-12-20T09:38:19;10.20;99.90
22065;DHT22;11197;53.110;8.468;2022-12-20T09:40:50;10.20;99.90
22065;DHT22;11197;53.110;8.468;2022-12-20T09:43:21;10.20;99.90
22065;DHT22;11197;53.110;8.468;2022-12-20T09:45:53;10.30;99.90
22065;DHT22;11197;53.110;8.468;2022-12-20T09:48:36;10.20;99.90
22065;DHT22;11197;53.110;8.468;2022-12-20T09:59:22;10.30;99.90
22065;DHT22;11197;53.110;8.468;2022-12-20T10:01:49;10.30;99.90
22065;DHT22;11197;53.110;8.468;2022-12-20T10:19:19;10.30;99.90
22065;DHT22;11197;53.110;8.468;2022-12-20T10:24:32;10.30;99.90
22065;DHT22;11197;53.110;8.468;2022-12-20T10:27:09;10.30;99.90
22065;DHT22;11197;53.110;8.468;2022-12-20T10:29:41;10.30;99.90
22065;DHT22;11197;53.110;8.468;2022-12-20T10:32:16;10.40;99.90
22065;DHT22;11197;53.110;8.468;2022-12-20T10:37:36;10.50;99.90
22065;DHT22;11197;53.110;8.468;2022-12-20T10:40:11;10.50;99.90
22065;DHT22;11197;53.110;8.468;2022-12-20T10:42:50;10.50;99.90
22065;DHT22;11197;53.110;8.468;2022-12-20T10:45:38;10.50;99.90
22065;DHT22;11197;53.110;8.468;2022-12-20T10:48:36;10.60;99.90
22065;DHT22;11197;53.110;8.468;2022-12-20T10:53:32;10.70;99.90
22065;DHT22;11197;53.110;8.468;2022-12-20T10:56:21;10.70;99.90
22065;DHT22;11197;53.110;8.468;2022-12-20T10:59:04;10.70;99.90
22065;DHT22;11197;53.110;8.468;2022-12-20T11:01:47;10.70;99.90
22065;DHT22;11197;53.110;8.468;2022-12-20T11:04:33;10.70;99.90
22065;DHT22;11197;53.110;8.468;2022-12-20T11:07:03;10.70;99.90
22065;DHT22;11197;53.110;8.468;2022-12-20T11:13:25;10.70;99.90
22065;DHT22;11197;53.110;8.468;2022-12-20T11:15:53;10.70;99.90
22065;DHT22;11197;53.110;8.468;2022-12-20T11:21:08;10.70;99.90
22065;DHT22;11197;53.110;8.468;2022-12-20T11:23:40;10.70;99.90
22065;DHT22;11197;53.110;8.468;2022-12-20T11:32:17;10.70;99.90
22065;DHT22;11197;53.110;8.468;2022-12-20T11:34:54;10.70;99.90
22065;DHT22;11197;53.110;8.468;2022-12-20T11:37:25;10.70;99.90
22065;DHT22;11197;53.110;8.468;2022-12-20T11:51:38;10.70;99.90
22065;DHT22;11197;53.110;8.468;2022-12-20T11:57:18;10.60;99.90
22065;DHT22;11197;53.110;8.468;2022-12-20T11:59:50;10.50;99.90
22065;DHT22;11197;53.110;8.468;2022-12-20T12:05:14;10.50;99.90
22065;DHT22;11197;53.110;8.468;2022-12-20T12:07:48;10.50;99.90
22065;DHT22;11197;53.110;8.468;2022-12-20T12:10:24;10.50;99.90
22065;DHT22;11197;53.110;8.468;2022-12-20T12:13:02;10.40;99.90
22065;DHT22;11197;53.110;8.468;2022-12-20T12:15:47;10.50;99.90
22065;DHT22;11197;53.110;8.468;2022-12-20T12:18:26;10.40;99.90
22065;DHT22;11197;53.110;8.468;2022-12-20T12:26:44;10.40;99.90
22065;DHT22;11197;53.110;8.468;2022-12-20T12:29:15;10.40;99.90
22065;DHT22;11197;53.110;8.468;2022-12-20T12:35:02;10.40;99.90
22065;DHT22;11197;53.110;8.468;2022-12-20T12:45:58;10.40;99.90
22065;DHT22;11197;53.110;8.468;2022-12-20T12:51:28;10.30;99.90
22065;DHT22;11197;53.110;8.468;2022-12-20T12:54:13;10.30;99.90
22065;DHT22;11197;53.110;8.468;2022-12-20T12:56:44;10.40;99.90
22065;DHT22;11197;53.110;8.468;2022-12-20T13:07:42;10.30;99.90
22065;DHT22;11197;53.110;8.468;2022-12-20T13:17:57;10.30;99.90
22065;DHT22;11197;53.110;8.468;2022-12-20T13:20:31;10.30;99.90
22065;DHT22;11197;53.110;8.468;2022-12-20T13:33:47;10.20;99.90
22065;DHT22;11197;53.110;8.468;2022-12-20T13:41:26;10.30;99.90
22065;DHT22;11197;53.110;8.468;2022-12-20T13:43:58;10.20;99.90
22065;DHT22;11197;53.110;8.468;2022-12-20T13:49:01;10.20;99.90
22065;DHT22;11197;53.110;8.468;2022-12-20T13:51:29;10.30;99.90
22065;DHT22;11197;53.110;8.468;2022-12-20T13:53:59;10.30;99.90
22065;DHT22;11197;53.110;8.468;2022-12-20T13:58:52;10.20;99.90
22065;DHT22;11197;53.110;8.468;2022-12-20T14:01:21;10.20;99.90
22065;DHT22;11197;53.110;8.468;2022-12-20T14:03:48;10.20;99.90
22065;DHT22;11197;53.110;8.468;2022-12-20T14:06:17;10.20;99.90
22065;DHT22;11197;53.110;8.468;2022-12-20T14:08:48;10.20;99.90
22065;DHT22;11197;53.110;8.468;2022-12-20T14:11:15;10.20;99.90
22065;DHT22;11197;53.110;8.468;2022-12-20T14:13:51;10.20;99.90
22065;DHT22;11197;53.110;8.468;2022-12-20T14:16:18;10.20;99.90
22065;DHT22;11197;53.110;8.468;2022-12-20T14:19:05;10.10;99.90
22065;DHT22;11197;53.110;8.468;2022-12-20T14:21:34;10.10;99.90
22065;DHT22;11197;53.110;8.468;2022-12-20T14:24:02;10.10;99.90
22065;DHT22;11197;53.110;8.468;2022-12-20T14:26:41;10.10;99.90
22065;DHT22;11197;53.110;8.468;2022-12-20T14:29:17;10.10;99.90
22065;DHT22;11197;53.110;8.468;2022-12-20T14:31:46;10.20;99.90
22065;DHT22;11197;53.110;8.468;2022-12-20T14:34:30;10.20;99.90
22065;DHT22;11197;53.110;8.468;2022-12-20T14:39:54;10.20;99.90
22065;DHT22;11197;53.110;8.468;2022-12-20T14:42:20;10.20;99.90
22065;DHT22;11197;53.110;8.468;2022-12-20T14:44:46;10.20;99.90
22065;DHT22;11197;53.110;8.468;2022-12-20T14:47:25;10.10;99.90
22065;DHT22;11197;53.110;8.468;2022-12-20T14:50:16;10.20;99.90
22065;DHT22;11197;53.110;8.468;2022-12-20T14:52:43;10.10;99.90
22065;DHT22;11197;53.110;8.468;2022-12-20T14:55:18;10.10;99.90
22065;DHT22;11197;53.110;8.468;2022-12-20T14:57:46;10.10;99.90
22065;DHT22;11197;53.110;8.468;2022-12-20T15:00:33;10.10;99.90
22065;DHT22;11197;53.110;8.468;2022-12-20T15:03:09;10.10;99.90
22065;DHT22;11197;53.110;8.468;2022-12-20T15:06:25;10.10;99.90
22065;DHT22;11197;53.110;8.468;2022-12-20T15:08:38;10.10;99.90
22065;DHT22;11197;53.110;8.468;2022-12-20T15:13:39;10.10;99.90
22065;DHT22;11197;53.110;8.468;2022-12-20T15:16:20;10.10;99.90
22065;DHT22;11197;53.110;8.468;2022-12-20T15:18:48;10.10;99.90
22065;DHT22;11197;53.110;8.468;2022-12-20T15:23:53;10.10;99.90
22065;DHT22;11197;53.110;8.468;2022-12-20T15:26:22;10.10;99.90
22065;DHT22;11197;53.110;8.468;2022-12-20T15:28:48;10.10;99.90
22065;DHT22;11197;53.110;8.468;2022-12-20T15:31:17;10.10;99.90
22065;DHT22;11197;53.110;8.468;2022-12-20T15:33:43;10.20;99.90
22065;DHT22;11197;53.110;8.468;2022-12-20T15:36:16;10.10;99.90
22065;DHT22;11197;53.110;8.468;2022-12-20T15:38:43;10.10;99.90
22065;DHT22;11197;53.110;8.468;2022-12-20T15:43:46;10.10;99.90
22065;DHT22;11197;53.110;8.468;2022-12-20T15:46:16;10.20;99.90
22065;DHT22;11197;53.110;8.468;2022-12-20T15:48:42;10.20;99.90
22065;DHT22;11197;53.110;8.468;2022-12-20T15:53:49;10.10;99.90
22065;DHT22;11197;53.110;8.468;2022-12-20T15:56:20;10.10;99.90
22065;DHT22;11197;53.110;8.468;2022-12-20T15:58:46;10.10;99.90
22065;DHT22;11197;53.110;8.468;2022-12-20T16:01:23;10.10;99.90
22065;DHT22;11197;53.110;8.468;2022-12-20T16:03:50;10.10;99.90
22065;DHT22;11197;53.110;8.468;2022-12-20T16:06:16;10.10;99.90
22065;DHT22;11197;53.110;8.468;2022-12-20T16:08:42;10.20;99.90
22065;DHT22;11197;53.110;8.468;2022-12-20T16:11:23;10.20;99.90
22065;DHT22;11197;53.110;8.468;2022-12-20T16:13:50;10.20;99.90
22065;DHT22;11197;53.110;8.468;2022-12-20T16:16:17;10.20;99.90
22065;DHT22;11197;53.110;8.468;2022-12-20T16:18:44;10.10;99.90
22065;DHT22;11197;53.110;8.468;2022-12-20T16:21:18;10.20;99.90
22065;DHT22;11197;53.110;8.468;2022-12-20T16:23:45;10.10;99.90
22065;DHT22;11197;53.110;8.468;2022-12-20T16:26:16;10.20;99.90
22065;DHT22;11197;53.110;8.468;2022-12-20T16:28:44;10.20;99.90
22065;DHT22;11197;53.110;8.468;2022-12-20T16:33:42;10.10;99.90
22065;DHT22;11197;53.110;8.468;2022-12-20T16:36:11;10.10;99.90
22065;DHT22;11197;53.110;8.468;2022-12-20T16:38:38;10.20;99.90
22065;DHT22;11197;53.110;8.468;2022-12-20T16:41:33;10.20;99.90
22065;DHT22;11197;53.110;8.468;2022-12-20T16:44:00;10.20;99.90
22065;DHT22;11197;53.110;8.468;2022-12-20T16:46:28;10.10;99.90
22065;DHT22;11197;53.110;8.468;2022-12-20T16:48:55;10.20;99.90
22065;DHT22;11197;53.110;8.468;2022-12-20T16:51:33;10.20;99.90
22065;DHT22;11197;53.110;8.468;2022-12-20T16:54:04;10.60;99.90
22065;DHT22;11197;53.110;8.468;2022-12-20T16:56:30;10.80;99.90
22065;DHT22;11197;53.110;8.468;2022-12-20T16:58:57;10.80;99.90
22065;DHT22;11197;53.110;8.468;2022-12-20T17:01:27;10.80;99.90
22065;DHT22;11197;53.110;8.468;2022-12-20T17:03:55;10.80;99.90
22065;DHT22;11197;53.110;8.468;2022-12-20T17:06:21;10.70;99.90
22065;DHT22;11197;53.110;8.468;2022-12-20T17:08:47;10.60;99.90
22065;DHT22;11197;53.110;8.468;2022-12-20T17:11:20;10.50;99.90
22065;DHT22;11197;53.110;8.468;2022-12-20T17:13:48;10.40;99.90
22065;DHT22;11197;53.110;8.468;2022-12-20T17:16:15;10.40;99.90
22065;DHT22;11197;53.110;8.468;2022-12-20T17:18:43;10.30;99.90
22065;DHT22;11197;53.110;8.468;2022-12-20T17:21:36;10.30;99.90
22065;DHT22;11197;53.110;8.468;2022-12-20T17:24:04;10.30;99.90
22065;DHT22;11197;53.110;8.468;2022-12-20T17:26:33;10.30;99.90
22065;DHT22;11197;53.110;8.468;2022-12-20T17:29:02;10.20;99.90
22065;DHT22;11197;53.110;8.468;2022-12-20T17:31:30;10.20;99.90
22065;DHT22;11197;53.110;8.468;2022-12-20T17:34:01;10.20;99.90
22065;DHT22;11197;53.110;8.468;2022-12-20T17:36:27;10.20;99.90
22065;DHT22;11197;53.110;8.468;2022-12-20T17:38:53;10.20;99.90
22065;DHT22;11197;53.110;8.468;2022-12-20T17:41:27;10.20;99.90
22065;DHT22;11197;53.110;8.468;2022-12-20T17:43:54;10.10;99.90
22065;DHT22;11197;53.110;8.468;2022-12-20T17:46:21;10.20;99.90
22065;DHT22;11197;53.110;8.468;2022-12-20T17:48:47;10.10;99.90
22065;DHT22;11197;53.110;8.468;2022-12-20T17:51:19;10.10;99.90
22065;DHT22;11197;53.110;8.468;2022-12-20T17:53:47;10.10;99.90
22065;DHT22;11197;53.110;8.468;2022-12-20T17:56:16;10.20;99.90
22065;DHT22;11197;53.110;8.468;2022-12-20T17:58:43;10.10;99.90
22065;DHT22;11197;53.110;8.468;2022-12-20T18:01:22;10.10;99.90
22065;DHT22;11197;53.110;8.468;2022-12-20T18:03:50;10.10;99.90
22065;DHT22;11197;53.110;8.468;2022-12-20T18:06:16;10.10;99.90
22065;DHT22;11197;53.110;8.468;2022-12-20T18:08:46;10.10;99.90
22065;DHT22;11197;53.110;8.468;2022-12-20T18:11:12;10.10;99.90
22065;DHT22;11197;53.110;8.468;2022-12-20T18:13:44;10.10;99.90
22065;DHT22;11197;53.110;8.468;2022-12-20T18:16:12;10.10;99.90
22065;DHT22;11197;53.110;8.468;2022-12-20T18:18:39;10.10;99.90
22065;DHT22;11197;53.110;8.468;2022-12-20T18:21:10;10.10;99.90
22065;DHT22;11197;53.110;8.468;2022-12-20T18:23:37;10.50;99.90
22065;DHT22;11197;53.110;8.468;2022-12-20T18:26:09;11.00;99.90
22065;DHT22;11197;53.110;8.468;2022-12-20T18:28:39;11.10;99.90
22065;DHT22;11197;53.110;8.468;2022-12-20T18:31:08;11.00;99.90
22065;DHT22;11197;53.110;8.468;2022-12-20T18:33:34;10.90;99.90